sensor_id;sensor_type;location;lat;lon;timestamp;temperature;humidity
74171;DHT22;62526;50.948;6.590;2023-05-07T00:01:30;15.50;99.90
74171;DHT22;62526;50.948;6.590;2023-05-07T00:03:57;15.50;99.90
74171;DHT22;62526;50.948;6.590;2023-05-07T00:06:23;15.50;99.90
74171;DHT22;62526;50.948;6.590;2023-05-07T00:08:50;15.50;99.90
74171;DHT22;62526;50.948;6.590;2023-05-07T00:11:17;15.50;99.90
74171;DHT22;62526;50.948;6.590;2023-05-07T00:13:43;15.50;99.90
74171;DHT22;62526;50.948;6.590;2023-05-07T00:16:10;15.40;99.90
74171;DHT22;62526;50.948;6.590;2023-05-07T00:18:36;15.40;99.90
74171;DHT22;62526;50.948;6.590;2023-05-07T00:21:03;15.40;99.90
74171;DHT22;62526;50.948;6.590;2023-05-07T00:23:31;15.40;99.90
74171;DHT22;62526;50.948;6.590;2023-05-07T00:25:58;15.40;99.90
74171;DHT22;62526;50.948;6.590;2023-05-07T00:28:25;15.40;99.90
74171;DHT22;62526;50.948;6.590;2023-05-07T00:30:52;15.40;99.90
74171;DHT22;62526;50.948;6.590;2023-05-07T00:33:24;15.40;99.90
74171;DHT22;62526;50.948;6.590;2023-05-07T00:35:51;15.40;99.90
74171;DHT22;62526;50.948;6.590;2023-05-07T00:38:18;15.40;99.90
74171;DHT22;62526;50.948;6.590;2023-05-07T00:40:44;15.40;99.90
74171;DHT22;62526;50.948;6.590;2023-05-07T00:43:11;15.40;99.90
74171;DHT22;62526;50.948;6.590;2023-05-07T00:45:38;15.40;99.90
74171;DHT22;62526;50.948;6.590;2023-05-07T00:48:04;15.40;99.90
74171;DHT22;62526;50.948;6.590;2023-05-07T00:50:31;15.50;99.90
74171;DHT22;62526;50.948;6.590;2023-05-07T00:52:58;15.50;99.90
74171;DHT22;62526;50.948;6.590;2023-05-07T00:55:25;15.40;99.90
74171;DHT22;62526;50.948;6.590;2023-05-07T00:57:52;15.50;99.90
74171;DHT22;62526;50.948;6.590;2023-05-07T01:00:18;15.50;99.90
74171;DHT22;62526;50.948;6.590;2023-05-07T01:02:45;15.50;99.90
74171;DHT22;62526;50.948;6.590;2023-05-07T01:05:12;15.50;99.90
74171;DHT22;62526;50.948;6.590;2023-05-07T01:07:39;15.50;99.90
74171;DHT22;62526;50.948;6.590;2023-05-07T01:10:06;15.50;99.90
74171;DHT22;62526;50.948;6.590;2023-05-07T01:12:33;15.50;99.90
74171;DHT22;62526;50.948;6.590;2023-05-07T01:15:00;15.50;99.90
74171;DHT22;62526;50.948;6.590;2023-05-07T01:17:27;15.60;99.90
74171;DHT22;62526;50.948;6.590;2023-05-07T01:19:53;15.60;99.90
74171;DHT22;62526;50.948;6.590;2023-05-07T01:22:28;15.60;99.90
74171;DHT22;62526;50.948;6.590;2023-05-07T01:24:53;15.50;99.90
74171;DHT22;62526;50.948;6.590;2023-05-07T01:27:20;15.50;99.90
74171;DHT22;62526;50.948;6.590;2023-05-07T01:29:46;15.50;99.90
74171;DHT22;62526;50.948;6.590;2023-05-07T01:32:13;15.50;99.90
74171;DHT22;62526;50.948;6.590;2023-05-07T01:34:40;15.50;99.90
74171;DHT22;62526;50.948;6.590;2023-05-07T01:37:07;15.50;99.90
74171;DHT22;62526;50.948;6.590;2023-05-07T01:39:35;15.40;99.90
74171;DHT22;62526;50.948;6.590;2023-05-07T01:42:01;15.50;99.90
74171;DHT22;62526;50.948;6.590;2023-05-07T01:44:28;15.40;99.90
74171;DHT22;62526;50.948;6.590;2023-05-07T01:46:55;15.40;99.90
74171;DHT22;62526;50.948;6.590;2023-05-07T01:49:21;15.40;99.90
74171;DHT22;62526;50.948;6.590;2023-05-07T01:51:49;15.40;99.90
74171;DHT22;62526;50.948;6.590;2023-05-07T01:54:15;15.30;99.90
74171;DHT22;62526;50.948;6.590;2023-05-07T01:56:42;15.30;99.90
74171;DHT22;62526;50.948;6.590;2023-05-07T01:59:09;15.30;99.90
74171;DHT22;62526;50.948;6.590;2023-05-07T02:01:38;15.20;99.90
74171;DHT22;62526;50.948;6.590;2023-05-07T02:04:04;15.20;99.90
74171;DHT22;62526;50.948;6.590;2023-05-07T02:06:33;15.20;99.90
74171;DHT22;62526;50.948;6.590;2023-05-07T02:08:59;15.20;99.90
74171;DHT22;62526;50.948;6.590;2023-05-07T02:11:26;15.20;99.90
74171;DHT22;62526;50.948;6.590;2023-05-07T02:13:53;15.10;99.90
74171;DHT22;62526;50.948;6.590;2023-05-07T02:16:20;15.10;99.90
74171;DHT22;62526;50.948;6.590;2023-05-07T02:18:47;15.20;99.90
74171;DHT22;62526;50.948;6.590;2023-05-07T02:21:13;15.20;99.90
74171;DHT22;62526;50.948;6.590;2023-05-07T02:23:40;15.20;99.90
74171;DHT22;62526;50.948;6.590;2023-05-07T02:26:08;15.20;99.90
74171;DHT22;62526;50.948;6.590;2023-05-07T02:28:35;15.20;99.90
74171;DHT22;62526;50.948;6.590;2023-05-07T02:31:02;15.20;99.90
74171;DHT22;62526;50.948;6.590;2023-05-07T02:33:30;15.20;99.90
74171;DHT22;62526;50.948;6.590;2023-05-07T02:35:56;15.20;99.90
74171;DHT22;62526;50.948;6.590;2023-05-07T02:38:23;15.20;99.90
74171;DHT22;62526;50.948;6.590;2023-05-07T02:40:49;15.20;99.90
74171;DHT22;62526;50.948;6.590;2023-05-07T02:43:17;15.20;99.90
74171;DHT22;62526;50.948;6.590;2023-05-07T02:45:43;15.10;99.90
74171;DHT22;62526;50.948;6.590;2023-05-07T02:48:10;15.10;99.90
74171;DHT22;62526;50.948;6.590;2023-05-07T02:50:37;15.10;99.90
74171;DHT22;62526;50.948;6.590;2023-05-07T02:53:04;15.00;99.90
74171;DHT22;62526;50.948;6.590;2023-05-07T02:55:30;15.00;99.90
74171;DHT22;62526;50.948;6.590;2023-05-07T02:57:57;14.90;99.90
74171;DHT22;62526;50.948;6.590;2023-05-07T03:00:24;14.90;99.90
74171;DHT22;62526;50.948;6.590;2023-05-07T03:02:51;14.90;99.90
74171;DHT22;62526;50.948;6.590;2023-05-07T03:05:18;14.90;99.90
74171;DHT22;62526;50.948;6.590;2023-05-07T03:07:45;14.80;99.90
74171;DHT22;62526;50.948;6.590;2023-05-07T03:10:12;14.80;99.90
74171;DHT22;62526;50.948;6.590;2023-05-07T03:12:38;14.80;99.90
74171;DHT22;62526;50.948;6.590;2023-05-07T03:15:05;14.80;99.90
74171;DHT22;62526;50.948;6.590;2023-05-07T03:17:33;14.80;99.90
74171;DHT22;62526;50.948;6.590;2023-05-07T03:20:00;14.80;99.90
74171;DHT22;62526;50.948;6.590;2023-05-07T03:22:28;14.80;99.90
74171;DHT22;62526;50.948;6.590;2023-05-07T03:24:54;14.80;99.90
74171;DHT22;62526;50.948;6.590;2023-05-07T03:27:22;14.80;99.90
74171;DHT22;62526;50.948;6.590;2023-05-07T03:29:48;14.90;99.90
74171;DHT22;62526;50.948;6.590;2023-05-07T03:32:15;14.80;99.90
74171;DHT22;62526;50.948;6.590;2023-05-07T03:34:41;14.90;99.90
74171;DHT22;62526;50.948;6.590;2023-05-07T03:37:08;14.90;99.90
74171;DHT22;62526;50.948;6.590;2023-05-07T03:39:35;14.80;99.90
74171;DHT22;62526;50.948;6.590;2023-05-07T03:42:02;14.80;99.90
74171;DHT22;62526;50.948;6.590;2023-05-07T03:44:30;14.80;99.90
74171;DHT22;62526;50.948;6.590;2023-05-07T03:46:56;14.90;99.90
74171;DHT22;62526;50.948;6.590;2023-05-07T03:49:23;14.80;99.90
74171;DHT22;62526;50.948;6.590;2023-05-07T03:51:49;14.80;99.90
74171;DHT22;62526;50.948;6.590;2023-05-07T03:54:16;14.80;99.90
74171;DHT22;62526;50.948;6.590;2023-05-07T03:56:43;14.80;99.90
74171;DHT22;62526;50.948;6.590;2023-05-07T03:59:10;14.80;99.90
74171;DHT22;62526;50.948;6.590;2023-05-07T04:01:37;14.80;99.90
74171;DHT22;62526;50.948;6.590;2023-05-07T04:04:04;14.80;99.90
74171;DHT22;62526;50.948;6.590;2023-05-07T04:06:30;14.80;99.90
74171;DHT22;62526;50.948;6.590;2023-05-07T04:08:57;14.70;99.90
74171;DHT22;62526;50.948;6.590;2023-05-07T04:11:25;14.80;99.90
74171;DHT22;62526;50.948;6.590;2023-05-07T04:13:51;14.80;99.90
74171;DHT22;62526;50.948;6.590;2023-05-07T04:16:18;14.70;99.90
74171;DHT22;62526;50.948;6.590;2023-05-07T04:18:44;14.70;99.90
74171;DHT22;62526;50.948;6.590;2023-05-07T04:21:16;14.70;99.90
74171;DHT22;62526;50.948;6.590;2023-05-07T04:23:41;14.70;99.90
74171;DHT22;62526;50.948;6.590;2023-05-07T04:26:09;14.70;99.90
74171;DHT22;62526;50.948;6.590;2023-05-07T04:28:35;14.70;99.90
74171;DHT22;62526;50.948;6.590;2023-05-07T04:31:02;14.70;99.90
74171;DHT22;62526;50.948;6.590;2023-05-07T04:33:29;14.70;99.90
74171;DHT22;62526;50.948;6.590;2023-05-07T04:35:56;14.70;99.90
74171;DHT22;62526;50.948;6.590;2023-05-07T04:38:23;14.70;99.90
74171;DHT22;62526;50.948;6.590;2023-05-07T04:40:51;14.70;99.90
74171;DHT22;62526;50.948;6.590;2023-05-07T04:43:17;14.70;99.90
74171;DHT22;62526;50.948;6.590;2023-05-07T04:45:44;14.80;99.90
74171;DHT22;62526;50.948;6.590;2023-05-07T04:48:10;14.80;99.90
74171;DHT22;62526;50.948;6.590;2023-05-07T04:50:37;14.80;99.90
74171;DHT22;62526;50.948;6.590;2023-05-07T04:53:04;14.80;99.90
74171;DHT22;62526;50.948;6.590;2023-05-07T04:55:30;14.80;99.90
74171;DHT22;62526;50.948;6.590;2023-05-07T04:57:57;14.80;99.90
74171;DHT22;62526;50.948;6.590;2023-05-07T05:00:24;14.90;99.90
74171;DHT22;62526;50.948;6.590;2023-05-07T05:02:50;14.80;99.90
74171;DHT22;62526;50.948;6.590;2023-05-07T05:05:18;14.80;99.90
74171;DHT22;62526;50.948;6.590;2023-05-07T05:07:44;14.90;99.90
74171;DHT22;62526;50.948;6.590;2023-05-07T05:10:11;15.00;99.90
74171;DHT22;62526;50.948;6.590;2023-05-07T05:12:38;15.00;99.90
74171;DHT22;62526;50.948;6.590;2023-05-07T05:15:05;15.00;99.90
74171;DHT22;62526;50.948;6.590;2023-05-07T05:17:31;15.10;99.90
74171;DHT22;62526;50.948;6.590;2023-05-07T05:19:59;15.10;99.90
74171;DHT22;62526;50.948;6.590;2023-05-07T05:22:26;15.10;99.90
74171;DHT22;62526;50.948;6.590;2023-05-07T05:24:52;15.20;99.90
74171;DHT22;62526;50.948;6.590;2023-05-07T05:27:19;15.20;99.90
74171;DHT22;62526;50.948;6.590;2023-05-07T05:29:46;15.20;99.90
74171;DHT22;62526;50.948;6.590;2023-05-07T05:32:12;15.30;99.90
74171;DHT22;62526;50.948;6.590;2023-05-07T05:34:39;15.30;99.90
74171;DHT22;62526;50.948;6.590;2023-05-07T05:37:05;15.40;99.90
74171;DHT22;62526;50.948;6.590;2023-05-07T05:39:32;15.40;99.90
74171;DHT22;62526;50.948;6.590;2023-05-07T05:41:59;15.40;99.90
74171;DHT22;62526;50.948;6.590;2023-05-07T05:44:25;15.40;99.90
74171;DHT22;62526;50.948;6.590;2023-05-07T05:46:52;15.50;99.90
74171;DHT22;62526;50.948;6.590;2023-05-07T05:49:18;15.50;99.90
74171;DHT22;62526;50.948;6.590;2023-05-07T05:51:45;15.60;99.90
74171;DHT22;62526;50.948;6.590;2023-05-07T05:54:12;15.60;99.90
74171;DHT22;62526;50.948;6.590;2023-05-07T05:56:38;15.70;99.90
74171;DHT22;62526;50.948;6.590;2023-05-07T05:59:05;15.80;99.90
74171;DHT22;62526;50.948;6.590;2023-05-07T06:01:32;15.90;99.90
74171;DHT22;62526;50.948;6.590;2023-05-07T06:03:58;15.90;99.90
74171;DHT22;62526;50.948;6.590;2023-05-07T06:06:25;16.00;99.90
74171;DHT22;62526;50.948;6.590;2023-05-07T06:08:53;16.10;99.90
74171;DHT22;62526;50.948;6.590;2023-05-07T06:11:19;16.20;99.90
74171;DHT22;62526;50.948;6.590;2023-05-07T06:13:46;16.30;99.90
74171;DHT22;62526;50.948;6.590;2023-05-07T06:16:13;16.60;99.90
74171;DHT22;62526;50.948;6.590;2023-05-07T06:18:40;16.60;99.90
74171;DHT22;62526;50.948;6.590;2023-05-07T06:21:09;16.70;99.90
74171;DHT22;62526;50.948;6.590;2023-05-07T06:23:36;16.80;99.90
74171;DHT22;62526;50.948;6.590;2023-05-07T06:26:02;16.90;99.90
74171;DHT22;62526;50.948;6.590;2023-05-07T06:28:31;17.00;99.90
74171;DHT22;62526;50.948;6.590;2023-05-07T06:31:10;17.00;99.90
74171;DHT22;62526;50.948;6.590;2023-05-07T06:33:36;17.10;99.90
74171;DHT22;62526;50.948;6.590;2023-05-07T06:36:03;17.10;99.90
74171;DHT22;62526;50.948;6.590;2023-05-07T06:38:30;17.20;99.90
74171;DHT22;62526;50.948;6.590;2023-05-07T06:40:56;17.30;99.90
74171;DHT22;62526;50.948;6.590;2023-05-07T06:43:23;17.40;99.90
74171;DHT22;62526;50.948;6.590;2023-05-07T06:45:50;17.50;99.90
74171;DHT22;62526;50.948;6.590;2023-05-07T06:48:17;17.50;99.90
74171;DHT22;62526;50.948;6.590;2023-05-07T06:50:44;17.60;99.90
74171;DHT22;62526;50.948;6.590;2023-05-07T06:53:10;17.70;99.90
74171;DHT22;62526;50.948;6.590;2023-05-07T06:55:37;17.80;99.90
74171;DHT22;62526;50.948;6.590;2023-05-07T06:58:04;17.90;99.90
74171;DHT22;62526;50.948;6.590;2023-05-07T07:00:30;18.00;99.90
74171;DHT22;62526;50.948;6.590;2023-05-07T07:02:57;18.10;99.90
74171;DHT22;62526;50.948;6.590;2023-05-07T07:05:24;18.10;99.90
74171;DHT22;62526;50.948;6.590;2023-05-07T07:07:51;18.20;99.90
74171;DHT22;62526;50.948;6.590;2023-05-07T07:10:19;18.40;99.90
74171;DHT22;62526;50.948;6.590;2023-05-07T07:12:46;18.40;99.90
74171;DHT22;62526;50.948;6.590;2023-05-07T07:15:13;18.50;99.90
74171;DHT22;62526;50.948;6.590;2023-05-07T07:17:40;18.60;99.90
74171;DHT22;62526;50.948;6.590;2023-05-07T07:20:07;18.70;99.90
74171;DHT22;62526;50.948;6.590;2023-05-07T07:22:34;18.70;99.90
74171;DHT22;62526;50.948;6.590;2023-05-07T07:25:01;18.80;99.90
74171;DHT22;62526;50.948;6.590;2023-05-07T07:27:27;18.90;99.90
74171;DHT22;62526;50.948;6.590;2023-05-07T07:29:54;19.00;99.90
74171;DHT22;62526;50.948;6.590;2023-05-07T07:32:21;19.10;99.90
74171;DHT22;62526;50.948;6.590;2023-05-07T07:34:48;19.10;99.90
74171;DHT22;62526;50.948;6.590;2023-05-07T07:37:15;19.20;99.90
74171;DHT22;62526;50.948;6.590;2023-05-07T07:39:41;19.30;99.90
74171;DHT22;62526;50.948;6.590;2023-05-07T07:42:08;19.40;99.90
74171;DHT22;62526;50.948;6.590;2023-05-07T07:44:34;19.50;99.90
74171;DHT22;62526;50.948;6.590;2023-05-07T07:47:01;19.50;99.90
74171;DHT22;62526;50.948;6.590;2023-05-07T07:49:28;19.50;99.90
74171;DHT22;62526;50.948;6.590;2023-05-07T07:51:54;19.50;99.90
74171;DHT22;62526;50.948;6.590;2023-05-07T07:54:21;19.60;99.90
74171;DHT22;62526;50.948;6.590;2023-05-07T07:56:47;19.70;99.90
74171;DHT22;62526;50.948;6.590;2023-05-07T07:59:14;19.80;99.90
74171;DHT22;62526;50.948;6.590;2023-05-07T08:01:41;19.90;99.90
74171;DHT22;62526;50.948;6.590;2023-05-07T08:04:08;20.10;99.90
74171;DHT22;62526;50.948;6.590;2023-05-07T08:06:35;20.10;99.90
74171;DHT22;62526;50.948;6.590;2023-05-07T08:09:02;20.20;99.90
74171;DHT22;62526;50.948;6.590;2023-05-07T08:11:28;20.30;99.90
74171;DHT22;62526;50.948;6.590;2023-05-07T08:13:55;20.40;99.90
74171;DHT22;62526;50.948;6.590;2023-05-07T08:16:21;20.50;99.90
74171;DHT22;62526;50.948;6.590;2023-05-07T08:18:48;20.50;99.90
74171;DHT22;62526;50.948;6.590;2023-05-07T08:21:15;20.60;99.90
74171;DHT22;62526;50.948;6.590;2023-05-07T08:23:41;20.60;99.90
74171;DHT22;62526;50.948;6.590;2023-05-07T08:26:08;20.70;99.90
74171;DHT22;62526;50.948;6.590;2023-05-07T08:28:35;20.70;99.90
74171;DHT22;62526;50.948;6.590;2023-05-07T08:31:01;20.70;99.90
74171;DHT22;62526;50.948;6.590;2023-05-07T08:33:28;20.80;99.90
74171;DHT22;62526;50.948;6.590;2023-05-07T08:35:54;20.90;99.90
74171;DHT22;62526;50.948;6.590;2023-05-07T08:38:21;21.00;99.90
74171;DHT22;62526;50.948;6.590;2023-05-07T08:40:47;21.00;99.90
74171;DHT22;62526;50.948;6.590;2023-05-07T08:43:14;21.20;99.90
74171;DHT22;62526;50.948;6.590;2023-05-07T08:45:41;21.20;99.90
74171;DHT22;62526;50.948;6.590;2023-05-07T08:48:09;21.40;99.90
74171;DHT22;62526;50.948;6.590;2023-05-07T08:50:35;21.50;99.90
74171;DHT22;62526;50.948;6.590;2023-05-07T08:53:03;21.50;99.90
74171;DHT22;62526;50.948;6.590;2023-05-07T08:55:29;21.60;99.90
74171;DHT22;62526;50.948;6.590;2023-05-07T08:57:55;21.60;99.90
74171;DHT22;62526;50.948;6.590;2023-05-07T09:00:22;21.70;99.90
74171;DHT22;62526;50.948;6.590;2023-05-07T09:02:49;21.70;99.90
74171;DHT22;62526;50.948;6.590;2023-05-07T09:05:15;21.70;99.90
74171;DHT22;62526;50.948;6.590;2023-05-07T09:07:42;21.80;99.90
74171;DHT22;62526;50.948;6.590;2023-05-07T09:10:09;21.90;99.90
74171;DHT22;62526;50.948;6.590;2023-05-07T09:12:35;22.10;99.90
74171;DHT22;62526;50.948;6.590;2023-05-07T09:15:02;22.20;99.90
74171;DHT22;62526;50.948;6.590;2023-05-07T09:17:29;22.40;99.90
74171;DHT22;62526;50.948;6.590;2023-05-07T09:19:55;22.50;99.90
74171;DHT22;62526;50.948;6.590;2023-05-07T09:22:22;22.50;99.90
74171;DHT22;62526;50.948;6.590;2023-05-07T09:24:49;22.60;99.90
74171;DHT22;62526;50.948;6.590;2023-05-07T09:27:15;22.70;99.90
74171;DHT22;62526;50.948;6.590;2023-05-07T09:29:42;22.80;99.90
74171;DHT22;62526;50.948;6.590;2023-05-07T09:32:08;23.00;99.90
74171;DHT22;62526;50.948;6.590;2023-05-07T09:34:36;23.20;99.90
74171;DHT22;62526;50.948;6.590;2023-05-07T09:37:03;23.40;99.90
74171;DHT22;62526;50.948;6.590;2023-05-07T09:39:38;23.40;99.90
74171;DHT22;62526;50.948;6.590;2023-05-07T09:42:04;23.50;99.90
74171;DHT22;62526;50.948;6.590;2023-05-07T09:44:31;23.60;99.90
74171;DHT22;62526;50.948;6.590;2023-05-07T09:46:58;23.60;99.90
74171;DHT22;62526;50.948;6.590;2023-05-07T09:49:24;23.70;99.90
74171;DHT22;62526;50.948;6.590;2023-05-07T09:51:51;23.70;99.90
74171;DHT22;62526;50.948;6.590;2023-05-07T09:54:18;23.60;99.90
74171;DHT22;62526;50.948;6.590;2023-05-07T09:56:45;23.50;99.90
74171;DHT22;62526;50.948;6.590;2023-05-07T09:59:13;23.40;99.90
74171;DHT22;62526;50.948;6.590;2023-05-07T10:01:41;23.40;99.90
74171;DHT22;62526;50.948;6.590;2023-05-07T10:04:07;23.40;99.90
74171;DHT22;62526;50.948;6.590;2023-05-07T10:06:35;23.50;99.90
74171;DHT22;62526;50.948;6.590;2023-05-07T10:09:02;23.70;99.90
74171;DHT22;62526;50.948;6.590;2023-05-07T10:11:29;23.80;99.90
74171;DHT22;62526;50.948;6.590;2023-05-07T10:13:56;24.00;99.90
74171;DHT22;62526;50.948;6.590;2023-05-07T10:16:22;24.10;99.90
74171;DHT22;62526;50.948;6.590;2023-05-07T10:18:49;24.30;99.90
74171;DHT22;62526;50.948;6.590;2023-05-07T10:21:17;24.40;99.90
74171;DHT22;62526;50.948;6.590;2023-05-07T10:23:45;24.50;99.90
74171;DHT22;62526;50.948;6.590;2023-05-07T10:26:11;24.50;99.90
74171;DHT22;62526;50.948;6.590;2023-05-07T10:28:39;24.60;99.90
74171;DHT22;62526;50.948;6.590;2023-05-07T10:31:14;24.80;99.90
74171;DHT22;62526;50.948;6.590;2023-05-07T10:33:34;24.90;99.90
74171;DHT22;62526;50.948;6.590;2023-05-07T10:36:01;25.00;99.90
74171;DHT22;62526;50.948;6.590;2023-05-07T10:38:28;25.00;99.90
74171;DHT22;62526;50.948;6.590;2023-05-07T10:40:54;25.20;99.90
74171;DHT22;62526;50.948;6.590;2023-05-07T10:43:21;25.20;99.90
74171;DHT22;62526;50.948;6.590;2023-05-07T10:46:22;25.40;99.90
74171;DHT22;62526;50.948;6.590;2023-05-07T10:51:25;25.60;98.70
74171;DHT22;62526;50.948;6.590;2023-05-07T10:56:30;25.70;98.50
74171;DHT22;62526;50.948;6.590;2023-05-07T10:59:01;25.80;97.10
74171;DHT22;62526;50.948;6.590;2023-05-07T11:04:15;25.70;95.20
74171;DHT22;62526;50.948;6.590;2023-05-07T11:06:41;25.70;96.90
74171;DHT22;62526;50.948;6.590;2023-05-07T11:09:08;25.70;97.60
74171;DHT22;62526;50.948;6.590;2023-05-07T11:11:44;25.70;95.50
74171;DHT22;62526;50.948;6.590;2023-05-07T11:14:10;25.60;94.20
74171;DHT22;62526;50.948;6.590;2023-05-07T11:16:37;25.70;95.20
74171;DHT22;62526;50.948;6.590;2023-05-07T11:27:29;26.00;94.10
74171;DHT22;62526;50.948;6.590;2023-05-07T11:29:56;26.00;95.20
74171;DHT22;62526;50.948;6.590;2023-05-07T11:32:23;26.00;95.10
74171;DHT22;62526;50.948;6.590;2023-05-07T11:34:52;25.80;96.70
74171;DHT22;62526;50.948;6.590;2023-05-07T11:37:21;25.60;96.00
74171;DHT22;62526;50.948;6.590;2023-05-07T11:39:47;25.30;94.70
74171;DHT22;62526;50.948;6.590;2023-05-07T11:42:33;25.00;95.50
74171;DHT22;62526;50.948;6.590;2023-05-07T11:44:59;24.80;97.40
74171;DHT22;62526;50.948;6.590;2023-05-07T11:47:25;24.60;99.90
74171;DHT22;62526;50.948;6.590;2023-05-07T11:49:53;24.60;99.90
74171;DHT22;62526;50.948;6.590;2023-05-07T11:52:19;24.60;99.90
74171;DHT22;62526;50.948;6.590;2023-05-07T11:54:54;24.70;99.90
74171;DHT22;62526;50.948;6.590;2023-05-07T11:57:20;24.80;99.90
74171;DHT22;62526;50.948;6.590;2023-05-07T11:59:46;24.90;99.90
74171;DHT22;62526;50.948;6.590;2023-05-07T12:02:15;25.00;99.90
74171;DHT22;62526;50.948;6.590;2023-05-07T12:04:41;25.20;99.00
74171;DHT22;62526;50.948;6.590;2023-05-07T12:07:12;25.20;97.60
74171;DHT22;62526;50.948;6.590;2023-05-07T12:09:38;25.10;97.60
74171;DHT22;62526;50.948;6.590;2023-05-07T12:12:05;25.00;94.90
74171;DHT22;62526;50.948;6.590;2023-05-07T12:14:31;24.80;95.90
74171;DHT22;62526;50.948;6.590;2023-05-07T12:17:00;24.80;98.60
74171;DHT22;62526;50.948;6.590;2023-05-07T12:19:26;24.60;99.90
74171;DHT22;62526;50.948;6.590;2023-05-07T12:21:53;24.60;99.90
74171;DHT22;62526;50.948;6.590;2023-05-07T12:24:19;24.60;99.90
74171;DHT22;62526;50.948;6.590;2023-05-07T12:26:46;24.50;98.10
74171;DHT22;62526;50.948;6.590;2023-05-07T12:29:13;24.50;97.30
74171;DHT22;62526;50.948;6.590;2023-05-07T12:31:42;24.40;97.60
74171;DHT22;62526;50.948;6.590;2023-05-07T12:34:10;24.30;99.70
74171;DHT22;62526;50.948;6.590;2023-05-07T12:36:38;24.30;99.90
74171;DHT22;62526;50.948;6.590;2023-05-07T12:39:05;24.20;99.90
74171;DHT22;62526;50.948;6.590;2023-05-07T12:41:35;24.10;99.90
74171;DHT22;62526;50.948;6.590;2023-05-07T12:43:58;24.00;99.90
74171;DHT22;62526;50.948;6.590;2023-05-07T12:46:24;23.90;99.90
74171;DHT22;62526;50.948;6.590;2023-05-07T12:48:51;23.80;99.90
74171;DHT22;62526;50.948;6.590;2023-05-07T12:51:18;23.70;99.90
74171;DHT22;62526;50.948;6.590;2023-05-07T12:53:44;23.70;99.90
74171;DHT22;62526;50.948;6.590;2023-05-07T12:56:11;23.60;99.90
74171;DHT22;62526;50.948;6.590;2023-05-07T12:58:37;23.10;99.90
74171;DHT22;62526;50.948;6.590;2023-05-07T13:01:06;22.90;99.90
74171;DHT22;62526;50.948;6.590;2023-05-07T13:03:33;22.50;99.90
74171;DHT22;62526;50.948;6.590;2023-05-07T13:06:01;22.20;99.90
74171;DHT22;62526;50.948;6.590;2023-05-07T13:08:32;22.00;99.90
74171;DHT22;62526;50.948;6.590;2023-05-07T13:10:59;21.80;99.90
74171;DHT22;62526;50.948;6.590;2023-05-07T13:13:25;21.50;99.90
74171;DHT22;62526;50.948;6.590;2023-05-07T13:15:52;21.30;99.90
74171;DHT22;62526;50.948;6.590;2023-05-07T13:18:18;21.00;99.90
74171;DHT22;62526;50.948;6.590;2023-05-07T13:20:45;20.90;99.90
74171;DHT22;62526;50.948;6.590;2023-05-07T13:23:11;20.90;99.90
74171;DHT22;62526;50.948;6.590;2023-05-07T13:25:38;20.70;99.90
74171;DHT22;62526;50.948;6.590;2023-05-07T13:28:05;20.60;99.90
74171;DHT22;62526;50.948;6.590;2023-05-07T13:30:31;20.70;99.90
74171;DHT22;62526;50.948;6.590;2023-05-07T13:32:59;20.70;99.90
74171;DHT22;62526;50.948;6.590;2023-05-07T13:35:25;20.60;99.90
74171;DHT22;62526;50.948;6.590;2023-05-07T13:37:52;20.40;99.90
74171;DHT22;62526;50.948;6.590;2023-05-07T13:40:21;20.10;99.90
74171;DHT22;62526;50.948;6.590;2023-05-07T13:42:48;20.00;99.90
74171;DHT22;62526;50.948;6.590;2023-05-07T13:45:14;19.80;99.90
74171;DHT22;62526;50.948;6.590;2023-05-07T13:47:42;19.70;99.90
74171;DHT22;62526;50.948;6.590;2023-05-07T13:50:09;19.70;99.90
74171;DHT22;62526;50.948;6.590;2023-05-07T13:52:37;19.50;99.90
74171;DHT22;62526;50.948;6.590;2023-05-07T13:55:03;19.30;99.90
74171;DHT22;62526;50.948;6.590;2023-05-07T13:57:30;19.10;99.90
74171;DHT22;62526;50.948;6.590;2023-05-07T13:59:57;19.10;99.90
74171;DHT22;62526;50.948;6.590;2023-05-07T14:02:23;18.80;99.90
74171;DHT22;62526;50.948;6.590;2023-05-07T14:04:50;18.60;99.90
74171;DHT22;62526;50.948;6.590;2023-05-07T14:07:16;18.50;99.90
74171;DHT22;62526;50.948;6.590;2023-05-07T14:09:43;18.60;99.90
74171;DHT22;62526;50.948;6.590;2023-05-07T14:12:10;18.80;99.90
74171;DHT22;62526;50.948;6.590;2023-05-07T14:14:36;19.00;99.90
74171;DHT22;62526;50.948;6.590;2023-05-07T14:17:03;19.00;99.90
74171;DHT22;62526;50.948;6.590;2023-05-07T14:19:30;19.10;99.90
74171;DHT22;62526;50.948;6.590;2023-05-07T14:21:57;19.20;99.90
74171;DHT22;62526;50.948;6.590;2023-05-07T14:24:23;19.40;99.90
74171;DHT22;62526;50.948;6.590;2023-05-07T14:26:50;19.60;99.90
74171;DHT22;62526;50.948;6.590;2023-05-07T14:29:17;19.80;99.90
74171;DHT22;62526;50.948;6.590;2023-05-07T14:31:43;20.10;99.90
74171;DHT22;62526;50.948;6.590;2023-05-07T14:34:10;20.40;99.90
74171;DHT22;62526;50.948;6.590;2023-05-07T14:36:36;20.60;99.90
74171;DHT22;62526;50.948;6.590;2023-05-07T14:39:04;20.90;99.90
74171;DHT22;62526;50.948;6.590;2023-05-07T14:41:30;21.20;99.90
74171;DHT22;62526;50.948;6.590;2023-05-07T14:43:57;21.30;99.90
74171;DHT22;62526;50.948;6.590;2023-05-07T14:46:24;21.40;99.90
74171;DHT22;62526;50.948;6.590;2023-05-07T14:48:50;21.50;99.90
74171;DHT22;62526;50.948;6.590;2023-05-07T14:51:17;21.50;99.90
74171;DHT22;62526;50.948;6.590;2023-05-07T14:53:44;21.70;99.90
74171;DHT22;62526;50.948;6.590;2023-05-07T14:56:11;21.70;99.90
74171;DHT22;62526;50.948;6.590;2023-05-07T14:58:37;21.90;99.90
74171;DHT22;62526;50.948;6.590;2023-05-07T15:01:04;22.00;99.90
74171;DHT22;62526;50.948;6.590;2023-05-07T15:03:32;22.20;99.90
74171;DHT22;62526;50.948;6.590;2023-05-07T15:05:59;22.30;99.90
74171;DHT22;62526;50.948;6.590;2023-05-07T15:08:26;22.50;99.90
74171;DHT22;62526;50.948;6.590;2023-05-07T15:10:52;22.50;99.90
74171;DHT22;62526;50.948;6.590;2023-05-07T15:13:19;22.50;99.90
74171;DHT22;62526;50.948;6.590;2023-05-07T15:15:46;22.60;99.90
74171;DHT22;62526;50.948;6.590;2023-05-07T15:18:13;22.70;99.90
74171;DHT22;62526;50.948;6.590;2023-05-07T15:20:39;22.80;99.90
74171;DHT22;62526;50.948;6.590;2023-05-07T15:23:06;22.80;99.90
74171;DHT22;62526;50.948;6.590;2023-05-07T15:25:32;22.80;99.90
74171;DHT22;62526;50.948;6.590;2023-05-07T15:27:59;22.80;99.90
74171;DHT22;62526;50.948;6.590;2023-05-07T15:30:25;22.80;99.90
74171;DHT22;62526;50.948;6.590;2023-05-07T15:33:01;22.80;99.90
74171;DHT22;62526;50.948;6.590;2023-05-07T15:35:28;22.80;99.90
74171;DHT22;62526;50.948;6.590;2023-05-07T15:37:54;22.80;99.90
74171;DHT22;62526;50.948;6.590;2023-05-07T15:40:21;22.80;99.90
74171;DHT22;62526;50.948;6.590;2023-05-07T15:42:48;22.80;99.90
74171;DHT22;62526;50.948;6.590;2023-05-07T15:45:14;22.80;99.90